• Join FlightAware (Why Join?)
  • Login
  • US Flag 
08:13PM EST


 

Airport Tracker/Info


-or-


 

Live Flight TrackerFlight Track Log ✈ AWE1262 ✈ 21-Apr-2013 ✈ KPHL - KMHT

Flight Track Log - Related Links

Times and Time Zones

All times are in EDT time to prevent confusion due to time zone crossing. See the AWE1262 flight status page for this flight to view local times or setup timezone preferences in your user account.

Time Position Orientation Groundspeed Altitude Reporting Facility
EDT Latitude Longitude Course Direction KTS MPH feet Rate Location/Type
09:41PM 39.8833 -75.2167 37° Northeast 133 153 1,200  Level Philadelphia TRACON
09:42PM 39.8736 -75.1953 121° Southeast 146 168 1,700 1,333 Climbing FAA TRACON SMA TRACON (SMA)
09:42PM 39.8706 -75.1697 99° East 188 216 2,200 1,950 Climbing FAA TRACON SMA TRACON (SMA)
09:42PM 39.8675 -75.1472 100° East 208 239 3,000 2,550 Climbing FAA TRACON SMA TRACON (SMA)
09:43PM 39.8695 -74.6139 37° Northeast  Level FlightAware Approximate
09:43PM 39.8636 -75.1250 103° East 206 237 3,900  Level FAA TRACON SMA TRACON (SMA)
09:43PM 39.8581 -75.0944 103° East 235 270 4,600 2,550 Climbing FAA TRACON SMA TRACON (SMA)
09:43PM 39.8533 -75.0672 103° East 250 288 5,600 3,150 Climbing FAA TRACON SMA TRACON (SMA)
09:44PM 40.0143 -74.4857 37° Northeast  Level FlightAware Approximate
09:44PM 39.8503 -75.0433 99° East 259 298 6,700  Level FAA TRACON SMA TRACON (SMA)
09:44PM 39.8428 -75.0042 104° East 255 293 8,000 3,150 Climbing FAA TRACON SMA TRACON (SMA)
09:44PM 39.8378 -74.9750 103° East 264 304 8,800 2,700 Climbing FAA TRACON SMA TRACON (SMA)
09:45PM 40.1488 -74.3358 57° Northeast  Level FlightAware Approximate
09:45PM 39.8328 -74.9442 102° East 278 320 9,800  Level FAA TRACON SMA TRACON (SMA)
09:45PM 39.8258 -74.9047 103° East 291 335 10,800 1,814 Climbing FAA TRACON SMA TRACON (SMA)
09:45PM 39.8189 -74.8653 103° East 314 361 11,100 1,333 Climbing FAA TRACON SMA TRACON (SMA)
09:46PM 40.2948 -74.2052 37° Northeast  Level FlightAware Approximate
09:46PM 39.8142 -74.8353 102° East 341 392 11,600  Level FAA TRACON SMA TRACON (SMA)
09:46PM 39.8128 -74.7856 92° East 349 402 12,700 2,850 Climbing FAA TRACON SMA TRACON (SMA)
09:46PM 39.8247 -74.7492 67° East 359 413 13,500 2,400 Climbing FAA TRACON SMA TRACON (SMA)
09:47PM 39.8458 -74.7200 47° Northeast 359 413 14,300 2,550 Climbing FAA TRACON SMA TRACON (SMA)
09:47PM 39.8739 -74.6858 43° Northeast 368 423 15,200 2,700 Climbing FAA TRACON SMA TRACON (SMA)
09:47PM 39.8978 -74.6567 43° Northeast 371 427 16,100 2,400 Climbing FAA TRACON SMA TRACON (SMA)
09:48PM 39.9211 -74.6278 44° Northeast 373 429 16,800 2,400 Climbing FAA TRACON SMA TRACON (SMA)
09:48PM 39.9503 -74.5917 43° Northeast 381 438 17,700 1,350 Climbing FAA TRACON SMA TRACON (SMA)
09:48PM 39.9769 -74.5594 43° Northeast 391 450 17,700 450 Level FAA TRACON SMA TRACON (SMA)
09:49PM 39.9881 -74.5453 44° Northeast 396 456 18,000 450 Climbing FAA TRACON SMA TRACON (SMA)
09:49PM 39.9881 -74.5453 159° South 396 456 18,000 1,794 Level FAA TRACON SMA TRACON (SMA)
09:50PM 40.1528 -74.3611 40° Northeast 407 468 21,200 2,041 Climbing New York Center
09:51PM 40.2536 -74.2603 37° Northeast 435 501 23,000 1,815 Climbing New York Center
09:52PM 40.3567 -74.1592 37° Northeast 451 519 24,800 1,736 Climbing New York Center
09:53PM 40.4750 -74.1050 19° North 451 519 26,500 1,531 Climbing New York Center
09:56PM 40.7756 -74.0736 North 466 536 29,700 1,421 Climbing Boston Center
09:57PM 40.9069 -74.0575 North 471 542 31,000 650 Climbing Boston Center
09:58PM 41.0406 -74.0389 North 471 542 31,000  Level Boston Center
09:59PM 41.1786 -74.0203 North 482 555 31,000  Level Boston Center
10:00PM 41.3164 -74.0017 North 488 562 31,000  Level Boston Center
10:01PM 41.4519 -73.9828 North 495 570 31,000  Level Boston Center
10:02PM 41.5919 -73.9639 North 495 570 31,000  Level Boston Center
10:03PM 41.7256 -73.9422 North 495 570 31,000  Level Boston Center
10:04PM 41.8611 -73.9286 North 488 562 31,000  Level Boston Center
10:05PM 41.9947 -73.9122 North 481 554 31,000  Level Boston Center
10:06PM 42.1269 -73.8508 19° North 481 554 31,000  Level Boston Center
10:07PM 42.2164 -73.6931 53° Northeast 486 559 31,000  Level Boston Center
10:08PM 42.2889 -73.5206 60° Northeast 493 567 31,000 -950 Level Boston Center
10:09PM 42.3550 -73.3617 61° Northeast 494 568 29,100 -1,950 Descending Boston Center
10:10PM 42.4250 -73.1883 61° Northeast 504 580 27,100 -1,600 Descending Boston Center
10:11PM 42.4906 -73.0342 60° Northeast 498 573 25,900 -1,850 Descending Boston Center
10:12PM 42.5539 -72.8797 61° Northeast 473 544 23,400 -2,400 Descending Boston Center
10:13PM 42.6147 -72.7336 60° Northeast 453 521 21,100 -2,050 Descending Boston Center
10:14PM 42.6669 -72.6264 56° Northeast 436 502 19,300 -1,700 Descending Boston Center
10:15PM 42.7172 -72.4825 65° Northeast 403 464 17,700 -2,100 Descending Boston Center
10:16PM 42.7692 -72.3608 60° Northeast 384 442 15,100 -2,300 Descending Boston Center
10:17PM 42.7983 -72.2308 73° East 362 417 13,100 -2,000 Descending Boston Center
10:18PM 42.8106 -72.0892 83° East 340 391 11,100 -1,450 Descending Boston Center
10:19PM 42.8289 -71.9872 76° East 316 364 10,200 -1,100 Descending Boston Center
10:20PM 42.8764 -71.8961 55° Northeast 273 314 8,900 -1,350 Descending Boston Center
10:21PM 42.9156 -71.8219 54° Northeast 268 308 7,500 -1,600 Descending Boston Center
10:22PM 42.9736 -71.7447 44° Northeast 257 296 5,700 -1,600 Descending Boston Center
10:23PM 43.0189 -71.6819 45° Northeast 252 290 4,300 -1,250 Descending Boston Center
10:24PM 43.0683 -71.6075 48° Northeast 246 283 3,200 -700 Descending Boston Center
10:25PM 43.0700 -71.5364 88° East 199 229 2,900 -500 Descending Boston Center
10:26PM 43.0281 -71.4914 142° Southeast 168 193 2,200 -700 Descending Boston Center